createdAt,value
2017-09-13T00:00:23.990Z,91.77
2017-09-13T00:01:31.194Z,91.80
2017-09-13T00:02:38.340Z,91.53
2017-09-13T00:03:44.878Z,91.77
2017-09-13T00:04:51.700Z,92.20
2017-09-13T00:05:57.855Z,91.50
2017-09-13T00:07:05.665Z,91.54
2017-09-13T00:08:12.443Z,91.69
2017-09-13T00:09:18.966Z,91.95
2017-09-13T00:10:26.393Z,92.11
2017-09-13T00:11:32.506Z,92.15
2017-09-13T00:12:38.796Z,92.49
2017-09-13T00:13:46.254Z,92.44
2017-09-13T00:14:52.846Z,92.19
2017-09-13T00:15:59.197Z,92.19
2017-09-13T00:17:05.441Z,92.01
2017-09-13T00:18:12.355Z,92.21
2017-09-13T00:19:18.548Z,92.03
2017-09-13T00:20:25.453Z,92.04
2017-09-13T00:21:31.576Z,92.08
2017-09-13T00:22:37.960Z,92.11
2017-09-13T00:23:44.725Z,92.57
2017-09-13T00:24:51.009Z,92.64
2017-09-13T00:25:58.052Z,92.95
2017-09-13T00:27:04.871Z,93.22
2017-09-13T00:28:11.482Z,93.61
2017-09-13T00:29:17.896Z,93.31
2017-09-13T00:30:24.415Z,93.63
2017-09-13T00:31:30.654Z,94.45
2017-09-13T00:32:36.961Z,94.51
2017-09-13T00:33:43.346Z,94.38
2017-09-13T00:34:49.630Z,94.61
2017-09-13T00:35:56.017Z,94.48
2017-09-13T00:37:03.110Z,93.86
2017-09-13T00:38:09.720Z,93.77
2017-09-13T00:39:15.946Z,93.66
2017-09-13T00:40:22.042Z,93.92
2017-09-13T00:41:28.651Z,93.72
2017-09-13T00:42:34.916Z,93.93
2017-09-13T00:43:41.263Z,94.68
2017-09-13T00:44:47.484Z,95.14
2017-09-13T00:45:53.817Z,95.26
2017-09-13T00:47:01.324Z,95.67
2017-09-13T00:48:07.252Z,95.75
2017-09-13T00:49:15.785Z,95.29
2017-09-13T00:50:22.038Z,94.78
2017-09-13T00:51:28.095Z,94.95
2017-09-13T00:52:34.500Z,94.62
2017-09-13T00:53:40.562Z,94.88
2017-09-13T00:54:45.928Z,95.38
2017-09-13T00:55:52.239Z,95.60
2017-09-13T00:56:58.967Z,95.45
2017-09-13T00:58:05.384Z,95.20
2017-09-13T00:59:12.163Z,95.24
2017-09-13T01:00:18.626Z,95.52
2017-09-13T01:01:25.245Z,95.51
2017-09-13T01:02:31.687Z,95.22
2017-09-13T01:03:38.244Z,95.30
2017-09-13T01:04:44.681Z,95.34
2017-09-13T01:05:50.765Z,95.33
2017-09-13T01:06:57.431Z,95.67
2017-09-13T01:08:04.480Z,96.10
2017-09-13T01:09:10.967Z,95.98
2017-09-13T01:10:17.270Z,95.97
2017-09-13T01:11:24.399Z,95.48
2017-09-13T01:12:30.803Z,96.10
2017-09-13T01:13:37.698Z,96.17
2017-09-13T01:14:44.311Z,95.96
2017-09-13T01:15:50.899Z,96.16
2017-09-13T01:16:57.274Z,96.40
2017-09-13T01:18:03.812Z,96.54
2017-09-13T01:19:10.141Z,96.40
2017-09-13T01:20:16.878Z,96.71
2017-09-13T01:21:23.151Z,96.62
2017-09-13T01:22:29.872Z,96.59
2017-09-13T01:23:36.086Z,96.96
2017-09-13T01:24:42.659Z,97.47
2017-09-13T01:25:49.015Z,97.38
2017-09-13T01:26:55.341Z,96.77
2017-09-13T01:28:01.667Z,96.12
2017-09-13T01:29:07.700Z,95.85
2017-09-13T01:30:14.014Z,96.10
2017-09-13T01:31:20.207Z,96.12
2017-09-13T01:32:26.581Z,96.14
2017-09-13T01:33:33.113Z,95.98
2017-09-13T01:34:39.599Z,95.88
2017-09-13T01:35:45.993Z,95.92
2017-09-13T01:36:52.142Z,95.91
2017-09-13T01:37:58.550Z,95.50
2017-09-13T01:39:04.039Z,95.84
2017-09-13T01:40:10.354Z,96.04
2017-09-13T01:41:16.762Z,95.84
2017-09-13T01:42:23.091Z,96.68
2017-09-13T01:43:29.263Z,96.78
2017-09-13T01:44:35.598Z,96.72
2017-09-13T01:45:41.917Z,96.98
2017-09-13T01:46:48.331Z,97.03
2017-09-13T01:48:00.653Z,96.88
2017-09-13T01:49:07.092Z,96.88
2017-09-13T01:50:13.710Z,96.94
2017-09-13T01:51:20.021Z,96.64
2017-09-13T01:52:26.541Z,96.57
2017-09-13T01:53:33.666Z,96.61
2017-09-13T01:54:40.909Z,96.76
2017-09-13T01:55:47.838Z,96.72
2017-09-13T01:56:54.137Z,96.78
2017-09-13T01:58:00.552Z,96.78
2017-09-13T01:59:06.727Z,96.52
2017-09-13T02:00:13.272Z,96.84
2017-09-13T02:01:19.788Z,97.17
2017-09-13T02:02:26.088Z,97.00
2017-09-13T02:03:32.336Z,97.04
2017-09-13T02:04:38.729Z,97.13
2017-09-13T02:05:45.145Z,97.03
2017-09-13T02:06:51.576Z,96.73
2017-09-13T02:07:58.289Z,96.84
2017-09-13T02:09:04.059Z,96.55
2017-09-13T02:10:11.365Z,96.38
2017-09-13T02:11:17.632Z,96.46
2017-09-13T02:12:24.007Z,96.38
2017-09-13T02:13:30.727Z,96.29
2017-09-13T02:14:37.016Z,96.45
2017-09-13T02:15:43.262Z,96.30
2017-09-13T02:16:50.924Z,96.28
2017-09-13T02:17:58.948Z,96.31
2017-09-13T02:19:05.481Z,95.95
2017-09-13T02:20:11.987Z,96.49
2017-09-13T02:21:18.219Z,96.93
2017-09-13T02:22:24.626Z,96.42
2017-09-13T02:23:31.046Z,95.96
2017-09-13T02:24:37.450Z,96.15
2017-09-13T02:25:44.288Z,96.26
2017-09-13T02:26:50.620Z,96.43
2017-09-13T02:27:57.194Z,96.47
2017-09-13T02:29:03.541Z,96.72
2017-09-13T02:30:09.943Z,96.78
2017-09-13T02:31:16.355Z,96.47
2017-09-13T02:32:22.567Z,95.81
2017-09-13T02:33:28.789Z,95.80
2017-09-13T02:34:35.286Z,96.03
2017-09-13T02:35:41.915Z,95.77
2017-09-13T02:36:48.222Z,96.10
2017-09-13T02:37:54.550Z,96.00
2017-09-13T02:39:01.667Z,95.71
2017-09-13T02:40:08.046Z,95.39
2017-09-13T02:41:15.208Z,95.71
2017-09-13T02:42:21.639Z,95.81
2017-09-13T02:43:28.181Z,96.03
2017-09-13T02:44:34.967Z,95.77
2017-09-13T02:45:41.493Z,95.49
2017-09-13T02:46:48.007Z,95.71
2017-09-13T02:47:54.622Z,95.93
2017-09-13T02:49:00.830Z,95.89
2017-09-13T02:50:07.120Z,95.77
2017-09-13T02:51:13.498Z,95.77
2017-09-13T02:52:20.047Z,95.82
2017-09-13T02:53:26.318Z,95.78
2017-09-13T02:54:32.488Z,96.09
2017-09-13T02:55:39.935Z,95.97
2017-09-13T02:56:46.220Z,95.94
2017-09-13T02:57:53.571Z,96.45
2017-09-13T02:59:00.175Z,96.24
2017-09-13T03:00:06.665Z,97.03
2017-09-13T03:01:12.922Z,97.05
2017-09-13T03:02:20.973Z,96.34
2017-09-13T03:03:27.759Z,96.61
2017-09-13T03:04:36.359Z,96.50
2017-09-13T03:05:42.448Z,96.54
2017-09-13T03:06:48.881Z,96.33
2017-09-13T03:07:55.263Z,96.05
2017-09-13T03:09:01.304Z,96.77
2017-09-13T03:10:08.854Z,96.70
2017-09-13T03:11:15.672Z,95.84
2017-09-13T03:12:21.997Z,95.80
2017-09-13T03:13:28.500Z,95.86
2017-09-13T03:14:34.983Z,95.53
2017-09-13T03:15:41.427Z,96.10
2017-09-13T03:16:47.947Z,96.12
2017-09-13T03:17:54.367Z,96.54
2017-09-13T03:19:00.662Z,96.50
2017-09-13T03:20:07.033Z,95.90
2017-09-13T03:21:13.346Z,95.87
2017-09-13T03:22:19.610Z,96.14
2017-09-13T03:23:26.100Z,96.09
2017-09-13T03:24:32.522Z,96.33
2017-09-13T03:25:39.140Z,96.77
2017-09-13T03:26:45.683Z,96.31
2017-09-13T03:27:52.077Z,96.55
2017-09-13T03:28:59.509Z,96.42
2017-09-13T03:30:05.622Z,95.75
2017-09-13T03:31:11.832Z,95.57
2017-09-13T03:32:18.158Z,95.71
2017-09-13T03:33:24.927Z,95.97
2017-09-13T03:34:31.727Z,95.95
2017-09-13T03:35:38.078Z,96.26
2017-09-13T03:36:44.431Z,95.80
2017-09-13T03:37:50.933Z,95.86
2017-09-13T03:38:58.730Z,95.59
2017-09-13T03:40:06.283Z,95.45
2017-09-13T03:41:12.937Z,95.42
2017-09-13T03:42:19.420Z,95.10
2017-09-13T03:43:26.698Z,95.04
2017-09-13T03:44:33.920Z,94.88
2017-09-13T03:45:40.515Z,94.50
2017-09-13T03:46:47.129Z,94.33
2017-09-13T03:47:53.572Z,94.11
2017-09-13T03:48:59.860Z,94.38
2017-09-13T03:50:06.912Z,94.33
2017-09-13T03:51:13.243Z,94.28
2017-09-13T03:52:19.549Z,94.04
2017-09-13T03:53:26.032Z,93.86
2017-09-13T03:54:32.881Z,93.71
2017-09-13T03:55:39.295Z,93.31
2017-09-13T03:56:46.113Z,93.20
2017-09-13T03:57:52.492Z,93.36
2017-09-13T04:00:55.289Z,93.17
2017-09-13T04:02:01.832Z,92.90
2017-09-13T04:03:08.567Z,92.76
2017-09-13T04:04:15.970Z,92.62
2017-09-13T04:05:23.496Z,92.16
2017-09-13T04:06:29.874Z,92.01
2017-09-13T04:07:36.859Z,92.13
2017-09-13T04:08:43.880Z,91.28
2017-09-13T04:09:50.804Z,91.00
2017-09-13T04:10:57.864Z,90.45
2017-09-13T04:12:05.934Z,89.91
2017-09-13T04:13:12.886Z,89.08
2017-09-13T04:14:19.543Z,88.93
2017-09-13T04:15:26.907Z,88.44
2017-09-13T04:16:34.443Z,88.37
2017-09-13T04:17:42.029Z,87.95
2017-09-13T04:18:50.796Z,87.84
2017-09-13T04:20:00.268Z,87.74
2017-09-13T04:21:08.424Z,87.07
2017-09-13T04:22:15.920Z,87.12
2017-09-13T04:23:24.456Z,85.97
2017-09-13T04:24:32.706Z,86.25
2017-09-13T04:25:40.449Z,86.17
2017-09-13T04:26:47.904Z,86.16
2017-09-13T04:27:56.386Z,86.34
2017-09-13T04:29:04.213Z,86.14
2017-09-13T04:30:14.213Z,86.09
2017-09-13T04:32:02.281Z,86.13
2017-09-13T04:36:03.946Z,86.64
2017-09-13T04:37:13.065Z,86.78
2017-09-13T04:38:21.291Z,86.27
2017-09-13T04:39:31.035Z,86.30
2017-09-13T04:40:40.068Z,86.69
2017-09-13T04:41:50.021Z,87.00
2017-09-13T04:43:00.099Z,87.36
2017-09-13T04:44:10.183Z,87.56
2017-09-13T04:45:18.447Z,87.51
2017-09-13T04:46:27.135Z,87.78
2017-09-13T04:47:36.122Z,88.04
2017-09-13T04:48:45.913Z,87.81
2017-09-13T04:49:55.037Z,88.03
2017-09-13T04:51:06.240Z,87.58
2017-09-13T04:52:16.673Z,87.06
2017-09-13T04:53:26.347Z,87.39
2017-09-13T04:56:10.915Z,87.32
2017-09-13T04:57:20.066Z,86.43
2017-09-13T04:58:30.312Z,87.13
2017-09-13T04:59:38.071Z,86.91
2017-09-13T05:00:46.962Z,86.29
2017-09-13T05:01:56.509Z,86.10
2017-09-13T05:03:04.934Z,85.81
2017-09-13T05:04:14.977Z,85.09
2017-09-13T05:05:23.922Z,85.16
2017-09-13T05:06:33.006Z,85.02
2017-09-13T05:07:42.940Z,85.00
2017-09-13T05:08:51.021Z,84.55
2017-09-13T05:10:00.014Z,84.47
2017-09-13T05:11:08.969Z,84.88
2017-09-13T05:12:17.193Z,84.53
2017-09-13T05:13:25.965Z,85.09
2017-09-13T05:14:35.006Z,84.75
2017-09-13T05:15:45.324Z,84.62
2017-09-13T05:16:54.328Z,85.48
2017-09-13T05:18:02.933Z,84.79
2017-09-13T05:19:11.134Z,84.76
2017-09-13T05:20:20.336Z,84.71
2017-09-13T05:21:29.356Z,84.97
2017-09-13T05:22:38.921Z,84.82
2017-09-13T05:23:47.869Z,84.09
2017-09-13T05:24:56.719Z,83.82
2017-09-13T05:26:05.960Z,84.08
2017-09-13T05:27:15.971Z,84.07
2017-09-13T05:28:28.213Z,84.10
2017-09-13T05:29:38.206Z,84.23
2017-09-13T05:30:46.344Z,84.31
2017-09-13T05:31:55.972Z,84.05
2017-09-13T05:33:04.953Z,84.11
2017-09-13T05:34:15.993Z,83.85
2017-09-13T05:35:25.955Z,84.62
2017-09-13T05:36:35.978Z,84.43
2017-09-13T05:37:46.012Z,84.48
2017-09-13T05:38:55.997Z,84.70
2017-09-13T05:40:05.842Z,83.89
2017-09-13T05:41:13.917Z,83.57
2017-09-13T05:42:22.995Z,83.64
2017-09-13T05:43:32.908Z,83.47
2017-09-13T05:44:41.263Z,83.02
2017-09-13T05:45:49.866Z,82.34
2017-09-13T05:46:58.937Z,81.46
2017-09-13T05:48:07.907Z,81.77
2017-09-13T05:49:17.826Z,82.12
2017-09-13T05:50:26.042Z,81.65
2017-09-13T05:51:34.989Z,81.98
2017-09-13T05:52:44.811Z,82.16
2017-09-13T05:53:53.298Z,83.27
2017-09-13T05:55:02.949Z,83.27
2017-09-13T05:56:12.987Z,82.05
2017-09-13T05:57:22.798Z,82.38
2017-09-13T05:58:53.014Z,82.85
2017-09-13T06:03:44.100Z,83.30
2017-09-13T06:04:52.924Z,83.90
2017-09-13T06:06:01.981Z,83.45
2017-09-13T06:07:12.033Z,84.22
2017-09-13T06:08:21.846Z,85.02
2017-09-13T06:09:31.885Z,82.99
2017-09-13T06:10:42.929Z,84.42
2017-09-13T06:11:53.011Z,85.38
2017-09-13T06:13:02.976Z,86.43
2017-09-13T06:14:12.056Z,85.89
2017-09-13T06:15:22.955Z,84.83
2017-09-13T06:16:31.786Z,86.46
2017-09-13T06:17:40.984Z,85.13
2017-09-13T06:18:49.849Z,85.25
2017-09-13T06:19:58.655Z,85.32
2017-09-13T06:21:07.135Z,86.17
2017-09-13T06:22:15.112Z,85.68
2017-09-13T06:23:24.844Z,85.92
2017-09-13T06:24:35.978Z,84.98
2017-09-13T06:25:44.905Z,86.25
2017-09-13T06:26:54.792Z,87.00
2017-09-13T06:28:03.642Z,86.08
2017-09-13T06:29:13.880Z,86.07
2017-09-13T06:30:25.042Z,85.80
2017-09-13T06:31:34.727Z,86.20
2017-09-13T06:32:43.808Z,85.51
2017-09-13T06:33:53.771Z,85.32
2017-09-13T06:35:02.709Z,85.30
2017-09-13T06:36:11.775Z,85.08
2017-09-13T06:37:20.840Z,85.16
2017-09-13T06:38:29.738Z,84.54
2017-09-13T06:39:38.754Z,83.53
2017-09-13T06:40:47.025Z,83.56
2017-09-13T06:41:55.934Z,84.33
2017-09-13T06:43:05.994Z,83.28
2017-09-13T06:44:14.847Z,83.36
2017-09-13T06:45:23.923Z,83.40
2017-09-13T06:46:31.769Z,84.73
2017-09-13T06:47:40.803Z,85.29
2017-09-13T06:48:51.679Z,85.27
2017-09-13T06:50:00.915Z,86.14
2017-09-13T06:51:10.822Z,86.17
2017-09-13T06:52:19.939Z,86.41
2017-09-13T06:53:28.759Z,86.95
2017-09-13T06:54:37.716Z,87.28
2017-09-13T06:55:46.979Z,87.17
2017-09-13T06:56:55.742Z,87.68
2017-09-13T06:58:05.276Z,88.88
2017-09-13T06:59:15.921Z,89.61
2017-09-13T07:00:24.788Z,90.08
2017-09-13T07:01:33.838Z,90.24
2017-09-13T07:02:42.795Z,89.98
2017-09-13T07:03:51.852Z,89.21
2017-09-13T07:05:00.765Z,89.56
2017-09-13T07:06:11.779Z,89.43
2017-09-13T07:07:20.886Z,89.94
2017-09-13T07:08:28.893Z,89.19
2017-09-13T07:09:38.801Z,87.88
2017-09-13T07:10:47.857Z,87.60
2017-09-13T07:11:57.882Z,88.32
2017-09-13T07:13:07.863Z,88.69
2017-09-13T07:14:18.644Z,88.21
2017-09-13T07:15:27.825Z,88.22
2017-09-13T07:16:36.878Z,87.87
2017-09-13T07:17:45.751Z,88.86
2017-09-13T07:18:55.759Z,88.22
2017-09-13T07:20:04.330Z,88.37
2017-09-13T07:21:12.796Z,88.87
2017-09-13T07:22:22.703Z,88.81
2017-09-13T07:23:32.773Z,89.02
2017-09-13T07:24:43.843Z,88.93
2017-09-13T07:25:53.735Z,89.06
2017-09-13T07:27:02.280Z,89.29
2017-09-13T07:28:10.770Z,88.90
2017-09-13T07:29:20.332Z,88.93
2017-09-13T07:30:29.791Z,89.04
2017-09-13T07:31:38.872Z,89.27
2017-09-13T07:32:47.811Z,89.80
2017-09-13T07:33:57.691Z,89.52
2017-09-13T07:35:07.008Z,89.76
2017-09-13T07:36:16.759Z,90.20
2017-09-13T07:37:25.746Z,90.81
2017-09-13T07:38:36.662Z,89.53
2017-09-13T07:39:45.745Z,88.90
2017-09-13T07:40:55.052Z,89.20
2017-09-13T07:42:03.829Z,89.34
2017-09-13T07:43:13.817Z,89.09
2017-09-13T07:44:23.738Z,89.16
2017-09-13T07:45:34.828Z,89.66
2017-09-13T07:46:44.712Z,88.86
2017-09-13T07:47:53.729Z,89.17
2017-09-13T07:49:03.716Z,89.02
2017-09-13T07:50:12.751Z,89.00
2017-09-13T07:51:23.669Z,89.42
2017-09-13T07:52:34.904Z,90.24
2017-09-13T07:53:45.621Z,89.45
2017-09-13T07:54:53.595Z,89.69
2017-09-13T07:56:02.726Z,89.69
2017-09-13T07:57:12.035Z,88.54
2017-09-13T07:58:20.960Z,88.63
2017-09-13T07:59:29.638Z,90.12
2017-09-13T08:00:39.744Z,89.57
2017-09-13T08:01:49.648Z,88.06
2017-09-13T08:02:59.731Z,87.90
2017-09-13T08:04:09.770Z,87.50
2017-09-13T08:05:19.703Z,87.96
2017-09-13T08:06:30.683Z,87.82
2017-09-13T08:07:40.623Z,87.36
2017-09-13T08:08:49.704Z,87.44
2017-09-13T08:09:59.558Z,87.76
2017-09-13T08:11:08.715Z,87.58
2017-09-13T08:12:17.709Z,88.55
2017-09-13T08:13:26.853Z,87.94
2017-09-13T08:14:35.683Z,87.97
2017-09-13T08:15:44.698Z,87.20
2017-09-13T08:16:55.587Z,86.44
2017-09-13T08:18:04.685Z,86.12
2017-09-13T08:19:13.661Z,86.33
2017-09-13T08:20:23.914Z,87.12
2017-09-13T08:21:33.707Z,87.31
2017-09-13T08:22:43.654Z,87.56
2017-09-13T08:23:52.291Z,87.17
2017-09-13T08:25:01.642Z,86.29
2017-09-13T08:26:11.728Z,85.52
2017-09-13T08:27:21.650Z,85.24
2017-09-13T08:28:31.498Z,84.39
2017-09-13T08:29:40.590Z,82.82
2017-09-13T08:30:48.519Z,80.71
2017-09-13T08:31:57.553Z,81.47
2017-09-13T08:33:07.549Z,81.06
2017-09-13T08:34:17.584Z,79.30
2017-09-13T08:35:25.800Z,79.92
2017-09-13T08:36:34.366Z,80.87
2017-09-13T08:37:43.831Z,80.39
2017-09-13T08:38:53.567Z,80.76
2017-09-13T08:40:03.785Z,79.55
2017-09-13T08:41:12.608Z,79.71
2017-09-13T08:42:22.602Z,78.85
2017-09-13T08:43:32.531Z,78.92
2017-09-13T08:44:42.413Z,78.10
2017-09-13T08:45:51.554Z,78.99
2017-09-13T08:47:02.687Z,77.93
2017-09-13T08:48:12.611Z,77.94
2017-09-13T08:49:23.506Z,76.63
2017-09-13T08:50:32.565Z,76.31
2017-09-13T08:51:42.548Z,75.53
2017-09-13T08:52:52.454Z,75.55
2017-09-13T08:54:00.112Z,75.60
2017-09-13T08:55:08.494Z,75.43
2017-09-13T08:56:17.899Z,75.78
2017-09-13T08:57:26.358Z,76.99
2017-09-13T08:58:35.416Z,76.69
2017-09-13T08:59:43.458Z,75.68
2017-09-13T09:00:52.547Z,76.44
2017-09-13T09:02:01.685Z,74.32
2017-09-13T09:03:10.633Z,74.71
2017-09-13T09:04:19.507Z,73.48
2017-09-13T09:05:28.458Z,73.99
2017-09-13T09:06:37.463Z,73.08
2017-09-13T09:07:46.449Z,72.73
2017-09-13T09:08:55.401Z,74.06
2017-09-13T09:10:03.437Z,73.01
2017-09-13T09:11:13.383Z,73.43
2017-09-13T09:12:22.415Z,74.61
2017-09-13T09:13:31.526Z,73.73
2017-09-13T09:14:40.565Z,74.16
2017-09-13T09:15:49.479Z,73.90
2017-09-13T09:16:59.136Z,74.14
2017-09-13T09:18:08.539Z,72.29
2017-09-13T09:19:17.754Z,72.77
2017-09-13T09:20:25.841Z,73.29
2017-09-13T09:21:34.467Z,74.85
2017-09-13T09:22:43.590Z,73.60
2017-09-13T09:23:54.430Z,72.43
2017-09-13T09:25:03.364Z,73.60
2017-09-13T09:26:15.456Z,71.47
2017-09-13T09:27:25.341Z,73.01
2017-09-13T09:28:33.498Z,70.97
2017-09-13T09:29:42.358Z,70.12
2017-09-13T09:30:51.874Z,70.26
2017-09-13T09:32:01.051Z,70.30
2017-09-13T09:33:10.942Z,69.92
2017-09-13T09:34:21.413Z,69.48
2017-09-13T09:35:30.366Z,69.23
2017-09-13T09:36:39.344Z,68.45
2017-09-13T09:37:48.463Z,69.28
2017-09-13T09:38:57.618Z,67.73
2017-09-13T09:40:06.118Z,66.99
2017-09-13T09:41:14.624Z,69.37
2017-09-13T09:42:24.371Z,70.20
2017-09-13T09:43:33.016Z,70.37
2017-09-13T09:44:41.547Z,71.38
2017-09-13T09:45:50.728Z,71.07
2017-09-13T09:46:58.830Z,70.95
2017-09-13T09:48:06.661Z,71.44
2017-09-13T09:49:15.416Z,71.11
2017-09-13T09:50:24.450Z,71.46
2017-09-13T09:51:33.393Z,70.64
2017-09-13T09:52:43.508Z,72.21
2017-09-13T09:53:51.571Z,72.34
2017-09-13T09:55:00.373Z,72.71
2017-09-13T09:56:10.369Z,71.77
2017-09-13T09:57:19.235Z,72.96
2017-09-13T09:58:29.487Z,72.37
2017-09-13T09:59:39.356Z,71.84
2017-09-13T10:00:48.245Z,72.33
2017-09-13T10:01:57.439Z,72.93
2017-09-13T10:03:06.457Z,73.27
2017-09-13T10:04:16.700Z,72.96
2017-09-13T10:05:26.493Z,72.14
2017-09-13T10:06:34.590Z,71.92
2017-09-13T10:07:42.635Z,72.44
2017-09-13T10:08:51.519Z,71.29
2017-09-13T10:10:01.234Z,72.22
2017-09-13T10:11:10.316Z,71.38
2017-09-13T10:12:19.382Z,72.42
2017-09-13T10:13:28.419Z,72.50
2017-09-13T10:14:37.767Z,72.77
2017-09-13T10:17:59.406Z,73.91
2017-09-13T10:19:08.263Z,73.52
2017-09-13T10:20:17.468Z,72.61
2017-09-13T10:21:26.330Z,72.97
2017-09-13T10:22:36.230Z,73.71
2017-09-13T10:23:44.482Z,74.42
2017-09-13T10:24:53.569Z,75.20
2017-09-13T10:26:02.259Z,77.42
2017-09-13T10:27:11.409Z,78.25
2017-09-13T10:28:21.530Z,77.23
2017-09-13T10:29:30.316Z,77.62
2017-09-13T10:30:38.213Z,77.20
2017-09-13T10:31:46.477Z,77.37
2017-09-13T10:32:57.429Z,78.80
2017-09-13T10:34:07.340Z,78.22
2017-09-13T10:35:19.402Z,78.31
2017-09-13T10:36:28.205Z,76.69
2017-09-13T10:37:37.618Z,77.09
2017-09-13T10:38:46.572Z,76.19
2017-09-13T10:39:54.405Z,76.47
2017-09-13T10:41:03.269Z,75.58
2017-09-13T10:42:13.424Z,75.47
2017-09-13T10:43:23.355Z,75.53
2017-09-13T10:44:31.327Z,74.62
2017-09-13T10:45:40.486Z,74.38
2017-09-13T10:46:50.263Z,73.74
2017-09-13T10:47:59.267Z,74.03
2017-09-13T10:49:08.588Z,74.45
2017-09-13T10:50:18.935Z,73.69
2017-09-13T10:51:29.432Z,73.01
2017-09-13T10:52:39.420Z,73.97
2017-09-13T10:53:48.445Z,73.55
2017-09-13T10:54:57.146Z,72.44
2017-09-13T10:56:06.287Z,72.19
2017-09-13T10:57:17.173Z,72.97
2017-09-13T10:58:27.505Z,72.46
2017-09-13T10:59:36.231Z,72.09
2017-09-13T11:00:46.225Z,71.83
2017-09-13T11:01:56.242Z,71.47
2017-09-13T11:03:06.247Z,71.73
2017-09-13T11:04:16.202Z,72.17
2017-09-13T11:05:25.084Z,71.49
2017-09-13T11:06:34.243Z,71.16
2017-09-13T11:07:44.182Z,72.12
2017-09-13T11:08:54.227Z,73.07
2017-09-13T11:10:04.338Z,72.50
2017-09-13T11:11:13.936Z,71.97
2017-09-13T11:12:23.145Z,70.57
2017-09-13T11:13:32.263Z,70.92
2017-09-13T11:14:40.978Z,70.81
2017-09-13T11:15:49.450Z,70.09
2017-09-13T11:16:59.248Z,69.88
2017-09-13T11:18:08.067Z,69.26
2017-09-13T11:19:17.791Z,68.50
2017-09-13T11:20:27.285Z,66.62
2017-09-13T11:21:37.174Z,64.90
2017-09-13T11:22:47.193Z,66.23
2017-09-13T11:23:57.364Z,65.38
2017-09-13T11:25:06.496Z,63.20
2017-09-13T11:26:14.959Z,64.21
2017-09-13T11:27:22.531Z,61.42
2017-09-13T11:28:31.464Z,61.81
2017-09-13T11:29:40.059Z,60.53
2017-09-13T11:30:48.198Z,60.49
2017-09-13T11:31:57.049Z,60.66
2017-09-13T11:33:04.566Z,59.82
